createdAt,value
2018-03-04T00:00:34.311Z,988.38
2018-03-04T00:01:34.288Z,988.42
2018-03-04T00:02:34.289Z,988.42
2018-03-04T00:03:34.282Z,988.40
2018-03-04T00:04:34.260Z,988.40
2018-03-04T00:05:34.297Z,988.38
2018-03-04T00:06:34.270Z,988.34
2018-03-04T00:07:34.236Z,988.32
2018-03-04T00:08:34.229Z,988.36
2018-03-04T00:09:34.218Z,988.36
2018-03-04T00:10:34.226Z,988.34
2018-03-04T00:11:34.231Z,988.33
2018-03-04T00:12:34.188Z,988.31
2018-03-04T00:13:34.226Z,988.32
2018-03-04T00:14:34.329Z,988.27
2018-03-04T00:15:34.177Z,988.22
2018-03-04T00:16:34.164Z,988.23
2018-03-04T00:17:34.144Z,988.22
2018-03-04T00:18:34.155Z,988.23
2018-03-04T00:19:34.124Z,988.22
2018-03-04T00:20:34.114Z,988.22
2018-03-04T00:21:34.113Z,988.18
2018-03-04T00:22:34.107Z,988.19
2018-03-04T00:23:34.088Z,988.14
2018-03-04T00:24:34.088Z,988.18
2018-03-04T00:25:34.073Z,988.18
2018-03-04T00:26:34.076Z,988.22
2018-03-04T00:27:34.052Z,988.24
2018-03-04T00:28:34.050Z,988.26
2018-03-04T00:29:34.040Z,988.30
2018-03-04T00:30:34.041Z,988.32
2018-03-04T00:31:34.021Z,988.34
2018-03-04T00:32:34.011Z,988.33
2018-03-04T00:33:33.997Z,988.36
2018-03-04T00:34:34.008Z,988.34
2018-03-04T00:35:34.005Z,988.32
2018-03-04T00:36:33.967Z,988.31
2018-03-04T00:37:33.978Z,988.32
2018-03-04T00:38:33.946Z,988.31
2018-03-04T00:39:33.942Z,988.36
2018-03-04T00:40:33.938Z,988.39
2018-03-04T00:41:33.931Z,988.35
2018-03-04T00:42:33.914Z,988.36
2018-03-04T00:43:33.909Z,988.30
2018-03-04T00:44:33.906Z,988.31
2018-03-04T00:45:33.886Z,988.25
2018-03-04T00:46:33.877Z,988.29
2018-03-04T00:47:33.868Z,988.21
2018-03-04T00:48:33.889Z,988.26
2018-03-04T00:49:33.856Z,988.25
2018-03-04T00:50:33.846Z,988.22
2018-03-04T00:51:33.827Z,988.25
2018-03-04T00:52:33.823Z,988.21
2018-03-04T00:53:33.807Z,988.23
2018-03-04T00:54:33.812Z,988.23
2018-03-04T00:55:33.796Z,988.25
2018-03-04T00:56:33.794Z,988.27
2018-03-04T00:57:33.790Z,988.28
2018-03-04T00:58:33.767Z,988.23
2018-03-04T00:59:33.768Z,988.24
2018-03-04T01:00:33.756Z,988.25
2018-03-04T01:01:33.779Z,988.30
2018-03-04T01:02:33.733Z,988.32
2018-03-04T01:03:33.715Z,988.30
2018-03-04T01:04:33.710Z,988.25
2018-03-04T01:05:33.699Z,988.25
2018-03-04T01:06:33.699Z,988.28
2018-03-04T01:07:33.686Z,988.29
2018-03-04T01:08:33.714Z,988.27
2018-03-04T01:09:33.681Z,988.29
2018-03-04T01:10:33.658Z,988.25
2018-03-04T01:11:33.645Z,988.23
2018-03-04T01:12:33.677Z,988.19
2018-03-04T01:13:33.633Z,988.15
2018-03-04T01:14:33.620Z,988.10
2018-03-04T01:15:33.605Z,988.13
2018-03-04T01:16:33.597Z,988.10
2018-03-04T01:17:33.584Z,988.04
2018-03-04T01:18:33.574Z,988.09
2018-03-04T01:19:33.574Z,988.12
2018-03-04T01:20:33.555Z,988.14
2018-03-04T01:21:33.549Z,988.12
2018-03-04T01:22:33.550Z,988.09
2018-03-04T01:23:33.558Z,988.07
2018-03-04T01:24:33.515Z,988.07
2018-03-04T01:25:33.507Z,988.08
2018-03-04T01:26:33.503Z,988.09
2018-03-04T01:27:33.500Z,988.08
2018-03-04T01:28:33.499Z,988.15
2018-03-04T01:29:33.478Z,988.18
2018-03-04T01:30:33.480Z,988.17
2018-03-04T01:31:33.452Z,988.13
2018-03-04T01:32:33.455Z,988.12
2018-03-04T01:33:33.429Z,988.21
2018-03-04T01:34:33.446Z,988.23
2018-03-04T01:35:33.418Z,988.17
2018-03-04T01:36:33.407Z,988.15
2018-03-04T01:37:33.390Z,988.11
2018-03-04T01:38:33.392Z,988.16
2018-03-04T01:39:33.428Z,988.13
2018-03-04T01:40:33.380Z,988.17
2018-03-04T01:41:33.360Z,988.19
2018-03-04T01:42:33.350Z,988.22
2018-03-04T01:43:33.341Z,988.24
2018-03-04T01:44:33.324Z,988.24
2018-03-04T01:45:33.330Z,988.31
2018-03-04T01:46:33.316Z,988.29
2018-03-04T01:47:33.300Z,988.30
2018-03-04T01:48:33.288Z,988.35
2018-03-04T01:49:33.276Z,988.29
2018-03-04T01:50:33.295Z,988.30
2018-03-04T01:51:33.255Z,988.32
2018-03-04T01:52:33.266Z,988.32
2018-03-04T01:53:33.243Z,988.33
2018-03-04T01:54:33.232Z,988.38
2018-03-04T01:55:33.221Z,988.38
2018-03-04T01:56:33.216Z,988.38
2018-03-04T01:57:33.220Z,988.39
2018-03-04T01:58:33.201Z,988.47
2018-03-04T01:59:33.257Z,988.48
2018-03-04T02:00:33.195Z,988.49
2018-03-04T02:01:33.219Z,988.44
2018-03-04T02:02:33.176Z,988.47
2018-03-04T02:03:33.186Z,988.50
2018-03-04T02:04:33.137Z,988.40
2018-03-04T02:05:33.143Z,988.50
2018-03-04T02:06:33.122Z,988.55
2018-03-04T02:07:33.109Z,988.64
2018-03-04T02:08:33.095Z,988.68
2018-03-04T02:09:33.087Z,988.69
2018-03-04T02:10:33.081Z,988.71
2018-03-04T02:11:33.081Z,988.69
2018-03-04T02:12:33.056Z,988.61
2018-03-04T02:13:33.046Z,988.58
2018-03-04T02:14:33.042Z,988.53
2018-03-04T02:15:33.033Z,988.43
2018-03-04T02:16:33.058Z,988.48
2018-03-04T02:17:33.026Z,988.49
2018-03-04T02:18:33.023Z,988.54
2018-03-04T02:19:32.992Z,988.57
2018-03-04T02:20:32.996Z,988.63
2018-03-04T02:21:32.988Z,988.58
2018-03-04T02:22:32.992Z,988.56
2018-03-04T02:23:32.955Z,988.53
2018-03-04T02:24:32.946Z,988.47
2018-03-04T02:25:32.943Z,988.41
2018-03-04T02:26:32.940Z,988.34
2018-03-04T02:27:32.921Z,988.31
2018-03-04T02:28:32.906Z,988.30
2018-03-04T02:29:32.913Z,988.30
2018-03-04T02:30:32.897Z,988.29
2018-03-04T02:31:32.878Z,988.24
2018-03-04T02:32:32.865Z,988.19
2018-03-04T02:33:32.862Z,988.16
2018-03-04T02:34:32.858Z,988.09
2018-03-04T02:35:32.852Z,988.10
2018-03-04T02:36:32.904Z,988.11
2018-03-04T02:37:32.831Z,988.11
2018-03-04T02:38:32.862Z,988.16
2018-03-04T02:39:32.808Z,988.14
2018-03-04T02:40:32.797Z,988.16
2018-03-04T02:41:32.818Z,988.20
2018-03-04T02:42:32.797Z,988.25
2018-03-04T02:43:32.768Z,988.19
2018-03-04T02:44:32.766Z,988.21
2018-03-04T02:45:32.757Z,988.17
2018-03-04T02:46:32.735Z,988.12
2018-03-04T02:47:32.727Z,988.13
2018-03-04T02:48:32.728Z,988.08
2018-03-04T02:49:32.708Z,988.10
2018-03-04T02:50:32.695Z,988.10
2018-03-04T02:51:32.687Z,988.06
2018-03-04T02:52:32.698Z,988.00
2018-03-04T02:53:32.688Z,987.90
2018-03-04T02:54:32.658Z,987.85
2018-03-04T02:55:32.659Z,987.86
2018-03-04T02:56:32.664Z,987.86
2018-03-04T02:57:32.629Z,987.87
2018-03-04T02:58:32.619Z,987.86
2018-03-04T02:59:32.611Z,987.88
2018-03-04T03:00:32.615Z,987.91
2018-03-04T03:01:32.591Z,987.89
2018-03-04T03:02:32.610Z,987.88
2018-03-04T03:03:32.579Z,987.83
2018-03-04T03:04:32.557Z,987.73
2018-03-04T03:05:32.559Z,987.68
2018-03-04T03:06:32.584Z,987.70
2018-03-04T03:07:32.540Z,987.71
2018-03-04T03:08:32.525Z,987.78
2018-03-04T03:09:32.518Z,987.77
2018-03-04T03:10:32.504Z,987.80
2018-03-04T03:11:32.507Z,987.78
2018-03-04T03:12:32.488Z,987.74
2018-03-04T03:13:32.495Z,987.80
2018-03-04T03:14:32.475Z,987.81
2018-03-04T03:28:33.957Z,987.80
2018-03-04T03:29:33.904Z,987.76
2018-03-04T03:30:33.867Z,987.84
2018-03-04T03:31:33.873Z,987.82
2018-03-04T03:32:33.843Z,987.84
2018-03-04T03:33:33.845Z,987.84
2018-03-04T03:34:33.819Z,987.80
2018-03-04T03:35:33.808Z,987.77
2018-03-04T03:36:33.793Z,987.77
2018-03-04T03:37:33.798Z,987.73
2018-03-04T03:38:33.769Z,987.73
2018-03-04T03:39:33.757Z,987.71
2018-03-04T03:40:33.749Z,987.73
2018-03-04T03:41:33.741Z,987.70
2018-03-04T03:42:33.739Z,987.72
2018-03-04T03:43:33.728Z,987.69
2018-03-04T03:44:33.703Z,987.65
2018-03-04T03:45:33.695Z,987.63
2018-03-04T03:46:41.339Z,987.63
2018-03-04T03:48:27.079Z,987.62
2018-03-04T03:49:27.072Z,987.62
2018-03-04T03:50:27.072Z,987.62
2018-03-04T03:51:27.048Z,987.58
2018-03-04T03:52:27.023Z,987.63
2018-03-04T03:53:27.035Z,987.64
2018-03-04T03:54:27.015Z,987.71
2018-03-04T03:55:26.997Z,987.72
2018-03-04T03:56:26.986Z,987.72
2018-03-04T03:57:26.988Z,987.69
2018-03-04T03:58:27.007Z,987.71
2018-03-04T03:59:26.960Z,987.70
2018-03-04T04:00:26.947Z,987.67
2018-03-04T04:01:26.935Z,987.71
2018-03-04T04:02:26.925Z,987.69
2018-03-04T04:03:26.916Z,987.69
2018-03-04T04:04:26.914Z,987.67
2018-03-04T04:05:26.901Z,987.74
2018-03-04T04:06:26.952Z,987.71
2018-03-04T04:07:26.878Z,987.70
2018-03-04T04:08:26.869Z,987.74
2018-03-04T04:09:26.863Z,987.73
2018-03-04T04:10:26.854Z,987.66
2018-03-04T04:11:26.851Z,987.65
2018-03-04T04:12:26.853Z,987.65
2018-03-04T04:13:26.841Z,987.63
2018-03-04T04:14:26.812Z,987.62
2018-03-04T04:15:26.802Z,987.59
2018-03-04T04:16:26.790Z,987.59
2018-03-04T04:17:26.788Z,987.63
2018-03-04T04:18:26.774Z,987.65
2018-03-04T04:19:26.772Z,987.66
2018-03-04T04:20:26.773Z,987.65
2018-03-04T04:21:26.743Z,987.64
2018-03-04T04:22:26.745Z,987.63
2018-03-04T04:23:26.805Z,987.65
2018-03-04T04:24:26.738Z,987.66
2018-03-04T04:25:26.705Z,987.68
2018-03-04T04:26:26.714Z,987.71
2018-03-04T04:27:26.682Z,987.68
2018-03-04T04:28:26.680Z,987.71
2018-03-04T04:29:26.690Z,987.73
2018-03-04T04:30:26.655Z,987.70
2018-03-04T04:31:26.652Z,987.65
2018-03-04T04:32:26.638Z,987.67
2018-03-04T04:33:26.630Z,987.66
2018-03-04T04:34:26.615Z,987.66
2018-03-04T04:35:26.611Z,987.62
2018-03-04T04:36:26.593Z,987.62
2018-03-04T04:37:26.589Z,987.64
2018-03-04T04:38:26.574Z,987.67
2018-03-04T04:39:26.568Z,987.63
2018-03-04T04:40:26.565Z,987.63
2018-03-04T04:41:26.661Z,987.62
2018-03-04T04:42:26.570Z,987.60
2018-03-04T04:43:26.549Z,987.58
2018-03-04T04:44:26.570Z,987.61
2018-03-04T04:45:26.525Z,987.59
2018-03-04T04:46:26.507Z,987.56
2018-03-04T04:47:26.493Z,987.58
2018-03-04T04:48:26.516Z,987.55
2018-03-04T04:49:26.487Z,987.54
2018-03-04T04:50:26.463Z,987.55
2018-03-04T04:51:26.453Z,987.53
2018-03-04T04:52:26.448Z,987.52
2018-03-04T04:53:26.432Z,987.50
2018-03-04T04:54:26.432Z,987.50
2018-03-04T04:55:26.417Z,987.51
2018-03-04T04:56:26.413Z,987.51
2018-03-04T04:57:26.392Z,987.51
2018-03-04T04:58:26.384Z,987.53
2018-03-04T04:59:26.380Z,987.54
2018-03-04T05:00:26.375Z,987.49
2018-03-04T05:01:26.363Z,987.53
2018-03-04T05:02:26.372Z,987.50
2018-03-04T05:03:26.331Z,987.48
2018-03-04T05:04:26.325Z,987.53
2018-03-04T05:05:26.318Z,987.55
2018-03-04T05:06:26.320Z,987.53
2018-03-04T05:07:26.297Z,987.53
2018-03-04T05:08:26.297Z,987.55
2018-03-04T05:09:26.288Z,987.59
2018-03-04T05:10:26.268Z,987.53
2018-03-04T05:11:26.255Z,987.52
2018-03-04T05:12:26.245Z,987.55
2018-03-04T05:13:26.239Z,987.54
2018-03-04T05:14:26.230Z,987.55
2018-03-04T05:15:26.328Z,987.54
2018-03-04T05:16:26.202Z,987.57
2018-03-04T05:17:26.198Z,987.58
2018-03-04T05:18:26.190Z,987.59
2018-03-04T05:19:26.177Z,987.61
2018-03-04T05:20:26.175Z,987.59
2018-03-04T05:21:26.186Z,987.59
2018-03-04T05:22:26.146Z,987.54
2018-03-04T05:23:26.142Z,987.61
2018-03-04T05:24:26.144Z,987.60
2018-03-04T05:25:26.240Z,987.59
2018-03-04T05:26:26.153Z,987.57
2018-03-04T05:27:26.099Z,987.65
2018-03-04T05:28:26.132Z,987.62
2018-03-04T05:29:26.095Z,987.62
2018-03-04T05:30:26.100Z,987.63
2018-03-04T05:31:26.072Z,987.65
2018-03-04T05:32:26.087Z,987.62
2018-03-04T05:33:26.077Z,987.64
2018-03-04T05:34:26.030Z,987.62
2018-03-04T05:35:26.021Z,987.61
2018-03-04T05:36:26.016Z,987.61
2018-03-04T05:37:26.006Z,987.60
2018-03-04T05:38:25.993Z,987.58
2018-03-04T05:39:25.996Z,987.55
2018-03-04T05:40:26.005Z,987.54
2018-03-04T05:41:25.964Z,987.48
2018-03-04T05:42:25.954Z,987.47
2018-03-04T05:43:25.946Z,987.51
2018-03-04T05:44:25.970Z,987.48
2018-03-04T05:45:25.930Z,987.44
2018-03-04T05:46:25.916Z,987.44
2018-03-04T05:47:25.902Z,987.41
2018-03-04T05:48:25.895Z,987.38
2018-03-04T05:49:25.891Z,987.35
2018-03-04T05:50:25.889Z,987.36
2018-03-04T05:51:25.861Z,987.33
2018-03-04T05:52:25.865Z,987.33
2018-03-04T05:53:25.841Z,987.33
2018-03-04T05:54:25.835Z,987.31
2018-03-04T05:55:25.844Z,987.26
2018-03-04T05:56:25.818Z,987.24
2018-03-04T05:57:25.804Z,987.18
2018-03-04T05:58:25.802Z,987.17
2018-03-04T05:59:25.788Z,987.16
2018-03-04T06:00:25.778Z,987.14
2018-03-04T06:01:25.952Z,987.10
2018-03-04T06:02:25.758Z,987.04
2018-03-04T06:03:25.745Z,987.04
2018-03-04T06:04:25.737Z,987.02
2018-03-04T06:05:25.724Z,987.05
2018-03-04T06:06:25.707Z,987.07
2018-03-04T06:07:25.737Z,987.03
2018-03-04T06:08:25.706Z,987.01
2018-03-04T06:09:25.684Z,986.98
2018-03-04T06:10:25.682Z,986.92
2018-03-04T06:11:25.658Z,986.92
2018-03-04T06:12:25.650Z,986.95
2018-03-04T06:13:25.650Z,986.94
2018-03-04T06:14:25.657Z,986.90
2018-03-04T06:15:25.624Z,986.86
2018-03-04T06:16:25.613Z,986.87
2018-03-04T06:17:25.595Z,986.85
2018-03-04T06:18:25.587Z,986.84
2018-03-04T06:19:25.592Z,986.84
2018-03-04T06:20:25.571Z,986.87
2018-03-04T06:21:25.554Z,986.89
2018-03-04T06:22:25.541Z,986.93
2018-03-04T06:23:25.528Z,987.04
2018-03-04T06:24:25.518Z,987.07
2018-03-04T06:25:25.507Z,987.11
2018-03-04T06:26:25.519Z,987.16
2018-03-04T06:27:25.486Z,987.20
2018-03-04T06:28:25.478Z,987.24
2018-03-04T06:29:25.467Z,987.29
2018-03-04T06:30:25.462Z,987.35
2018-03-04T06:31:25.449Z,987.38
2018-03-04T06:32:25.438Z,987.37
2018-03-04T06:33:25.441Z,987.39
2018-03-04T06:34:25.434Z,987.41
2018-03-04T06:35:25.404Z,987.42
2018-03-04T06:36:25.402Z,987.39
2018-03-04T06:37:25.383Z,987.41
2018-03-04T06:38:25.371Z,987.45
2018-03-04T06:39:25.368Z,987.47
2018-03-04T06:40:25.350Z,987.52
2018-03-04T06:41:25.343Z,987.54
2018-03-04T06:42:25.364Z,987.58
2018-03-04T06:43:25.327Z,987.56
2018-03-04T06:44:25.310Z,987.53
2018-03-04T06:45:25.326Z,987.55
2018-03-04T06:46:25.310Z,987.53
2018-03-04T06:47:25.282Z,987.52
2018-03-04T06:48:25.303Z,987.54
2018-03-04T06:49:25.261Z,987.53
2018-03-04T06:50:25.258Z,987.51
2018-03-04T06:51:25.264Z,987.49
2018-03-04T06:52:25.247Z,987.48
2018-03-04T06:53:25.224Z,987.50
2018-03-04T06:54:25.214Z,987.47
2018-03-04T06:55:25.199Z,987.47
2018-03-04T06:56:25.192Z,987.41
2018-03-04T06:57:25.199Z,987.41
2018-03-04T06:58:25.172Z,987.39
2018-03-04T06:59:25.160Z,987.43
2018-03-04T07:00:25.159Z,987.44
2018-03-04T07:01:25.140Z,987.43
2018-03-04T07:02:25.128Z,987.42
2018-03-04T07:03:25.129Z,987.36
2018-03-04T07:04:25.114Z,987.36
2018-03-04T07:05:25.111Z,987.33
2018-03-04T07:06:25.110Z,987.31
2018-03-04T07:07:25.082Z,987.29
2018-03-04T07:08:25.076Z,987.25
2018-03-04T07:09:25.068Z,987.27
2018-03-04T07:10:25.060Z,987.30
2018-03-04T07:11:25.085Z,987.30
2018-03-04T07:12:25.078Z,987.38
2018-03-04T07:13:25.030Z,987.38
2018-03-04T07:14:25.020Z,987.40
2018-03-04T07:15:25.008Z,987.35
2018-03-04T07:16:24.999Z,987.31
2018-03-04T07:17:25.003Z,987.28
2018-03-04T07:18:24.981Z,987.25
2018-03-04T07:19:24.978Z,987.23
2018-03-04T07:20:24.980Z,987.20
2018-03-04T07:21:24.943Z,987.22
2018-03-04T07:22:24.934Z,987.21
2018-03-04T07:23:24.924Z,987.21
2018-03-04T07:24:24.926Z,987.22
2018-03-04T07:25:24.909Z,987.20
2018-03-04T07:26:24.896Z,987.22
2018-03-04T07:27:24.880Z,987.18
2018-03-04T07:28:24.863Z,987.21
2018-03-04T07:29:24.855Z,987.25
2018-03-04T07:30:24.886Z,987.23
2018-03-04T07:31:24.838Z,987.20
2018-03-04T07:32:24.843Z,987.17
2018-03-04T07:33:24.871Z,987.10
2018-03-04T07:34:24.801Z,987.00
2018-03-04T07:35:24.794Z,987.02
2018-03-04T07:36:24.789Z,986.95
2018-03-04T07:37:24.768Z,986.97
2018-03-04T07:38:24.781Z,986.96
2018-03-04T07:39:24.754Z,987.01
2018-03-04T07:40:24.735Z,987.02
2018-03-04T07:41:24.729Z,986.95
2018-03-04T07:42:24.721Z,986.96
2018-03-04T07:43:24.710Z,986.96
2018-03-04T07:44:24.698Z,986.94
2018-03-04T07:45:24.679Z,986.98
2018-03-04T07:46:24.675Z,986.93
2018-03-04T07:47:24.663Z,986.97
2018-03-04T07:48:24.653Z,986.96
2018-03-04T07:49:24.639Z,986.95
2018-03-04T07:50:24.628Z,986.96
2018-03-04T07:51:24.622Z,986.93
2018-03-04T07:52:24.651Z,986.97
2018-03-04T07:53:24.616Z,986.97
2018-03-04T07:54:24.591Z,986.97
2018-03-04T07:55:24.591Z,986.97
2018-03-04T07:56:24.578Z,986.95
2018-03-04T07:57:24.545Z,986.93
2018-03-04T07:58:24.538Z,986.94
2018-03-04T07:59:24.533Z,986.94
2018-03-04T08:00:24.515Z,986.95
2018-03-04T08:01:24.504Z,986.91
2018-03-04T08:02:24.504Z,986.93
2018-03-04T08:03:24.491Z,986.94
2018-03-04T08:04:24.493Z,986.95
2018-03-04T08:05:24.470Z,987.03
2018-03-04T08:06:24.456Z,987.05
2018-03-04T08:07:24.448Z,987.07
2018-03-04T08:08:24.433Z,987.08
2018-03-04T08:09:24.422Z,987.08
2018-03-04T08:10:24.413Z,987.05
2018-03-04T08:11:24.440Z,987.07
2018-03-04T08:12:24.401Z,987.05
2018-03-04T08:13:24.392Z,987.05
2018-03-04T08:14:24.375Z,987.05
2018-03-04T08:15:24.373Z,987.06
2018-03-04T08:16:24.359Z,987.05
2018-03-04T08:17:24.354Z,987.03
2018-03-04T08:18:24.334Z,987.03
2018-03-04T08:19:24.330Z,987.02
2018-03-04T08:20:24.333Z,987.03
2018-03-04T08:21:24.310Z,987.03
2018-03-04T08:22:24.333Z,986.99
2018-03-04T08:23:24.291Z,986.99
2018-03-04T08:24:24.279Z,986.96
2018-03-04T08:25:24.273Z,986.96
2018-03-04T08:26:24.266Z,986.95
2018-03-04T08:27:24.256Z,986.98
2018-03-04T08:28:24.276Z,986.96
2018-03-04T08:29:24.244Z,986.99
2018-03-04T08:30:24.222Z,986.92
2018-03-04T08:31:24.211Z,986.92
2018-03-04T08:32:24.215Z,986.90
2018-03-04T08:33:24.195Z,986.91
2018-03-04T08:34:24.182Z,986.91
2018-03-04T08:35:24.171Z,986.94
2018-03-04T08:36:24.193Z,986.93
2018-03-04T08:37:24.171Z,986.90
2018-03-04T08:38:24.150Z,986.91
2018-03-04T08:39:24.149Z,986.90
2018-03-04T08:40:24.159Z,986.89
2018-03-04T08:41:24.119Z,986.91
2018-03-04T08:42:24.127Z,986.89
2018-03-04T08:43:24.120Z,986.86
2018-03-04T08:44:24.097Z,986.83
2018-03-04T08:45:24.083Z,986.87
2018-03-04T08:46:24.070Z,986.86
2018-03-04T08:47:24.062Z,986.83
2018-03-04T08:48:24.073Z,986.80
2018-03-04T08:49:24.066Z,986.81
2018-03-04T08:50:24.038Z,986.77
2018-03-04T08:51:24.040Z,986.73
2018-03-04T08:52:24.051Z,986.70
2018-03-04T08:53:24.024Z,986.72
2018-03-04T08:54:24.062Z,986.74
2018-03-04T08:55:23.991Z,986.73
2018-03-04T08:56:24.010Z,986.72
2018-03-04T08:57:24.015Z,986.67
2018-03-04T08:58:24.001Z,986.68
2018-03-04T08:59:23.966Z,986.67
2018-03-04T09:00:23.946Z,986.67
2018-03-04T09:01:23.941Z,986.68
2018-03-04T09:02:23.959Z,986.71
2018-03-04T09:03:23.965Z,986.71
2018-03-04T09:04:23.920Z,986.68
2018-03-04T09:05:23.948Z,986.72
2018-03-04T09:06:23.890Z,986.74
2018-03-04T09:07:23.919Z,986.77
2018-03-04T09:08:23.949Z,986.79
2018-03-04T09:09:23.877Z,986.79
2018-03-04T09:10:23.886Z,986.77
2018-03-04T09:11:23.854Z,986.82
2018-03-04T09:12:23.846Z,986.84
2018-03-04T09:13:23.939Z,986.82
2018-03-04T09:14:23.902Z,986.81
2018-03-04T09:15:23.873Z,986.85
2018-03-04T09:16:23.808Z,986.80
2018-03-04T09:17:23.798Z,986.74
2018-03-04T09:18:23.811Z,986.75
2018-03-04T09:19:23.825Z,986.68
2018-03-04T09:20:23.775Z,986.64
2018-03-04T09:21:23.788Z,986.59
2018-03-04T09:22:23.770Z,986.59
2018-03-04T09:23:23.761Z,986.53
2018-03-04T09:24:23.774Z,986.44
2018-03-04T09:25:23.784Z,986.38
2018-03-04T09:26:23.770Z,986.28
2018-03-04T09:27:23.720Z,986.18
2018-03-04T09:28:23.710Z,986.19
2018-03-04T09:29:23.769Z,986.19
2018-03-04T09:30:23.695Z,986.18
2018-03-04T09:31:23.701Z,986.20
2018-03-04T09:32:23.736Z,986.19
2018-03-04T09:33:23.678Z,986.15
2018-03-04T09:34:23.680Z,986.16
2018-03-04T09:35:23.678Z,986.12
2018-03-04T09:36:23.665Z,986.13
2018-03-04T09:37:23.697Z,986.15
2018-03-04T09:38:23.639Z,986.09
2018-03-04T09:39:23.633Z,986.07
2018-03-04T09:40:23.606Z,986.05
2018-03-04T09:41:23.696Z,986.03
2018-03-04T09:42:23.592Z,986.02
2018-03-04T09:43:23.583Z,985.96
2018-03-04T09:44:23.600Z,985.97
2018-03-04T09:45:23.610Z,985.99
2018-03-04T09:46:23.600Z,985.96
2018-03-04T09:47:23.563Z,986.01
2018-03-04T09:48:23.553Z,985.99
2018-03-04T09:49:23.539Z,986.05
2018-03-04T09:50:23.539Z,986.03
2018-03-04T09:51:23.517Z,986.03
2018-03-04T09:52:23.508Z,986.07
2018-03-04T09:53:23.502Z,986.08
2018-03-04T09:54:23.492Z,986.10
2018-03-04T09:55:23.481Z,986.03
2018-03-04T09:56:23.472Z,986.11
2018-03-04T09:57:23.466Z,986.11
2018-03-04T09:58:23.470Z,986.15
2018-03-04T09:59:23.451Z,986.12
2018-03-04T10:00:23.443Z,986.14
2018-03-04T10:01:23.435Z,986.13
2018-03-04T10:02:23.430Z,986.14
2018-03-04T10:03:23.425Z,986.18
2018-03-04T10:04:23.413Z,986.15
2018-03-04T10:05:23.406Z,986.11
2018-03-04T10:06:23.398Z,986.08
2018-03-04T10:07:23.391Z,986.05
2018-03-04T10:08:23.383Z,986.02
2018-03-04T10:09:23.377Z,986.02
2018-03-04T10:10:23.373Z,986.02
2018-03-04T10:11:23.388Z,986.02
2018-03-04T10:12:23.395Z,986.00
2018-03-04T10:13:23.363Z,985.93
2018-03-04T10:14:23.367Z,985.95
2018-03-04T10:15:23.329Z,985.97
2018-03-04T10:16:23.356Z,986.01
2018-03-04T10:17:23.322Z,986.01
2018-03-04T10:18:23.330Z,986.00
2018-03-04T10:19:23.307Z,986.00
2018-03-04T10:20:23.334Z,985.98
2018-03-04T10:21:23.298Z,985.91
2018-03-04T10:22:23.279Z,985.88
2018-03-04T10:23:23.280Z,985.85
2018-03-04T10:24:23.264Z,985.87
2018-03-04T10:25:23.286Z,985.90
2018-03-04T10:26:23.257Z,985.89
2018-03-04T10:27:23.247Z,985.92
2018-03-04T10:28:23.242Z,985.96
2018-03-04T10:29:23.240Z,986.01
2018-03-04T10:30:23.228Z,985.97
2018-03-04T10:31:23.213Z,985.96
2018-03-04T10:32:23.216Z,985.99
2018-03-04T10:33:23.207Z,985.99
2018-03-04T10:34:23.209Z,985.97
2018-03-04T10:35:23.206Z,985.96
2018-03-04T10:36:23.204Z,985.98
2018-03-04T10:37:23.176Z,985.97
2018-03-04T10:38:23.161Z,985.96
2018-03-04T10:39:23.159Z,985.93
2018-03-04T10:40:23.159Z,985.92
2018-03-04T10:41:23.170Z,985.95
2018-03-04T10:42:23.163Z,985.91
2018-03-04T10:43:23.171Z,985.97
2018-03-04T10:44:23.133Z,985.95
2018-03-04T10:45:23.130Z,985.96
2018-03-04T10:46:23.118Z,986.02
2018-03-04T10:47:23.177Z,985.97
2018-03-04T10:48:23.129Z,985.94
2018-03-04T10:49:23.113Z,985.93
2018-03-04T10:50:23.085Z,985.96
2018-03-04T10:51:23.091Z,985.96
2018-03-04T10:52:23.084Z,985.98
2018-03-04T10:53:23.072Z,986.02
2018-03-04T10:54:23.084Z,986.02
2018-03-04T10:55:23.056Z,986.00
2018-03-04T10:56:23.048Z,986.04
2018-03-04T10:57:23.038Z,986.02
2018-03-04T10:58:23.034Z,986.06
2018-03-04T10:59:23.044Z,986.06
2018-03-04T11:00:23.015Z,986.10
2018-03-04T11:01:23.015Z,986.07
2018-03-04T11:02:23.003Z,986.08
2018-03-04T11:03:22.999Z,986.06
2018-03-04T11:04:23.008Z,986.07
2018-03-04T11:05:22.986Z,986.03
2018-03-04T11:06:23.004Z,986.02
2018-03-04T11:07:22.990Z,986.03
2018-03-04T11:08:22.967Z,986.01
2018-03-04T11:09:22.961Z,985.95
2018-03-04T11:10:22.956Z,986.02
2018-03-04T11:11:22.946Z,986.01
2018-03-04T11:12:22.949Z,985.99
2018-03-04T11:13:22.936Z,985.99
2018-03-04T11:14:22.941Z,985.99
2018-03-04T11:15:22.959Z,985.96
2018-03-04T11:16:22.914Z,985.94
2018-03-04T11:17:22.906Z,985.88
2018-03-04T11:18:22.915Z,985.85
2018-03-04T11:19:22.895Z,985.80
2018-03-04T11:20:22.892Z,985.79
2018-03-04T11:21:22.907Z,985.75
2018-03-04T11:22:22.885Z,985.80
2018-03-04T11:23:22.869Z,985.75
2018-03-04T11:24:22.868Z,985.75
2018-03-04T11:25:22.856Z,985.69
2018-03-04T11:26:22.855Z,985.73
2018-03-04T11:27:22.854Z,985.64
2018-03-04T11:28:22.875Z,985.64
2018-03-04T11:29:22.870Z,985.63
2018-03-04T11:30:22.842Z,985.66
2018-03-04T11:31:22.818Z,985.65
2018-03-04T11:32:22.815Z,985.69
2018-03-04T11:33:22.815Z,985.65
2018-03-04T11:34:22.813Z,985.62
2018-03-04T11:35:22.800Z,985.66
2018-03-04T11:36:22.794Z,985.61
2018-03-04T11:37:22.803Z,985.60
2018-03-04T11:38:22.773Z,985.56
2018-03-04T11:39:22.813Z,985.57
2018-03-04T11:40:22.842Z,985.53
2018-03-04T11:41:22.813Z,985.50
2018-03-04T11:42:22.747Z,985.49
2018-03-04T11:43:22.758Z,985.44
2018-03-04T11:44:22.739Z,985.42
2018-03-04T11:45:22.766Z,985.42
2018-03-04T11:46:22.745Z,985.40
2018-03-04T11:47:22.720Z,985.42
2018-03-04T11:48:22.740Z,985.42
2018-03-04T11:49:22.712Z,985.36
2018-03-04T11:50:22.737Z,985.38
2018-03-04T11:51:22.718Z,985.37
2018-03-04T11:52:22.689Z,985.34
2018-03-04T11:53:22.692Z,985.32
2018-03-04T11:54:22.698Z,985.31
2018-03-04T11:55:22.672Z,985.29
2018-03-04T11:56:22.663Z,985.32
2018-03-04T11:57:22.660Z,985.27
2018-03-04T11:58:22.656Z,985.29
2018-03-04T11:59:22.642Z,985.25
2018-03-04T12:00:22.642Z,985.23
2018-03-04T12:01:22.660Z,985.23
2018-03-04T12:02:22.621Z,985.20
2018-03-04T12:03:22.652Z,985.13
2018-03-04T12:04:22.612Z,985.14
2018-03-04T12:05:22.609Z,985.12
2018-03-04T12:06:22.733Z,985.07
2018-03-04T12:07:22.597Z,985.03
2018-03-04T12:08:22.650Z,984.99
2018-03-04T12:09:22.694Z,984.95
2018-03-04T12:10:22.604Z,984.95
2018-03-04T12:11:22.622Z,984.87
2018-03-04T12:12:22.653Z,984.82
2018-03-04T12:13:22.564Z,984.72
2018-03-04T12:14:22.699Z,984.63
2018-03-04T12:15:22.584Z,984.61
2018-03-04T12:16:22.670Z,984.57
2018-03-04T12:17:22.548Z,984.57
2018-03-04T12:18:22.551Z,984.52
2018-03-04T12:19:31.675Z,984.56
2018-03-04T12:21:17.457Z,984.49
2018-03-04T12:22:17.126Z,984.47
2018-03-04T12:23:18.018Z,984.45
2018-03-04T12:24:17.307Z,984.41
2018-03-04T12:25:17.939Z,984.40
2018-03-04T12:26:17.100Z,984.35
2018-03-04T12:27:17.088Z,984.34
2018-03-04T12:28:25.863Z,984.33
2018-03-04T12:30:10.590Z,984.26
2018-03-04T12:31:10.472Z,984.26
2018-03-04T12:32:10.483Z,984.20
2018-03-04T12:33:10.541Z,984.17
2018-03-04T12:34:10.447Z,984.14
2018-03-04T12:35:10.444Z,984.06
2018-03-04T12:36:10.440Z,983.99
2018-03-04T12:37:10.428Z,983.94
2018-03-04T12:38:10.441Z,983.92
2018-03-04T12:39:10.441Z,983.87
2018-03-04T12:40:10.472Z,983.89
2018-03-04T12:42:31.473Z,983.86
2018-03-04T12:43:31.445Z,983.93
2018-03-04T12:44:31.437Z,983.93
2018-03-04T12:45:31.448Z,983.96